1995 ALBERTINE (1994325S06076)


On this page: IBTrACS data - Map and Plots - Positions - Intensities - Original source data

Summary

Start Nov 21
End Dec 3
Basin SI
LMI 115 kt
Sources jtwc_sh
reunion
neumann
In WMO? Yes
Previous storm 1994 MISSING (NI)
Previous in basin 1995 A19495 (SI)
Concurrent storms 1994 GORDON (NA)
1995 ALBERTINE (SI)
Next in basin 1995 ANNETTE (SI)
Next storm 1995 ANNETTE (SI)

top of page IBTrACS Data: File Access

No storm imagery available

top of page Plots:

Map of storm track will not appear if FTP is down
Time series of cyclone Maximum Sustained Wind will not appear if FTP is down
Time series of cyclone Minimum Central Pressure will not appear if FTP is down

top of page Track Data:Position

jtwc_sh reunion neumann
Date Lat Lon Lat Lon Lat Lon
1994-11-21 06:00:00 -6.1 76.3 -6.1 76.3
1994-11-21 12:00:00 -5.8 76.2 -5.8 76.2
1994-11-21 18:00:00 -5.5 76.0 -5.5 76.0
1994-11-22 00:00:00 -5.4 75.9 -5.4 75.9
1994-11-22 06:00:00 -5.4 75.7 -5.4 75.7
1994-11-22 12:00:00 -5.3 75.6 -5.3 75.6
1994-11-22 18:00:00 -5.3 75.4 -5.3 75.4
1994-11-23 00:00:00 -5.4 75.2 -5.4 75.2
1994-11-23 06:00:00 -5.6 75.0 -5.6 75.0
1994-11-23 12:00:00 -5.9 75.1 -5.9 75.1
1994-11-23 18:00:00 -6.1 75.2 -6.6 76.0 -6.1 75.2
1994-11-24 00:00:00 -6.3 75.3 -7.1 76.1 -6.3 75.3
1994-11-24 06:00:00 -6.5 75.4 -7.4 75.9 -6.5 75.4
1994-11-24 12:00:00 -6.9 75.3 -7.5 75.5 -6.9 75.3
1994-11-24 18:00:00 -7.3 75.1 -7.5 75.0 -7.3 75.1
1994-11-25 00:00:00 -7.7 74.8 -7.6 74.7 -7.7 74.8
1994-11-25 06:00:00 -8.1 74.4 -8.0 74.3 -8.1 74.4
1994-11-25 12:00:00 -8.4 73.9 -8.4 73.9 -8.4 73.9
1994-11-25 18:00:00 -8.7 73.5 -8.8 73.6 -8.7 73.5
1994-11-26 00:00:00 -9.0 73.2 -9.0 73.6 -9.0 73.2
1994-11-26 06:00:00 -9.3 72.9 -9.2 73.4 -9.3 72.9
1994-11-26 12:00:00 -9.7 72.6 -9.4 73.2 -9.7 72.6
1994-11-26 18:00:00 -10.1 72.2 -9.8 72.7 -10.1 72.2
1994-11-27 00:00:00 -10.5 71.8 -10.4 72.1 -10.5 71.8
1994-11-27 06:00:00 -11.1 71.4 -10.9 71.6 -11.1 71.4
jtwc_sh reunion neumann
1994-11-27 12:00:00 -11.7 70.9 -11.5 71.0 -11.7 70.9
1994-11-27 18:00:00 -12.3 70.2 -12.3 70.4 -12.3 70.2
1994-11-28 00:00:00 -13.0 69.5 -13.1 69.6 -13.0 69.5
1994-11-28 06:00:00 -13.7 68.7 -13.8 68.9 -13.7 68.7
1994-11-28 12:00:00 -14.4 67.9 -14.4 68.1 -14.4 67.9
1994-11-28 18:00:00 -15.1 67.1 -15.0 67.2 -15.1 67.1
1994-11-29 00:00:00 -15.8 66.2 -15.6 66.3 -15.8 66.2
1994-11-29 06:00:00 -16.5 65.3 -16.3 65.4 -16.5 65.3
1994-11-29 12:00:00 -17.2 64.4 -17.0 64.7 -17.2 64.4
1994-11-29 18:00:00 -17.9 63.6 -17.8 63.9 -17.9 63.6
1994-11-30 00:00:00 -18.6 62.9 -18.8 63.0 -18.6 62.9
1994-11-30 06:00:00 -19.5 62.4 -19.8 62.1 -19.5 62.4
1994-11-30 12:00:00 -20.4 61.9 -21.0 61.3 -20.4 61.9
1994-11-30 18:00:00 -21.3 61.4 -21.9 60.9 -21.3 61.4
1994-12-01 00:00:00 -22.2 61.0 -22.9 60.8 -22.2 61.0
1994-12-01 06:00:00 -23.0 60.7 -23.8 60.7 -23.0 60.7
1994-12-01 12:00:00 -23.7 60.6 -24.4 60.8 -23.7 60.6
1994-12-01 18:00:00 -24.2 60.7 -25.2 61.0 -24.2 60.7
1994-12-02 00:00:00 -24.7 60.8 -26.1 61.3 -24.7 60.8
1994-12-02 06:00:00 -25.2 61.0 -27.0 61.7 -25.2 61.0
1994-12-02 12:00:00 -27.8 62.2
1994-12-02 18:00:00 -29.1 63.3
1994-12-03 00:00:00 -30.8 64.7

top of pageTrack Data:Intensity

jtwc_sh reunion neumann
Date Wind Pres Wind Pres Wind Pres
1994-11-21 06:00:00 20. 20.
1994-11-21 12:00:00 25. 25.
1994-11-21 18:00:00 25. 25.
1994-11-22 00:00:00 25. 25.
1994-11-22 06:00:00 25. 25.
1994-11-22 12:00:00 25. 25.
1994-11-22 18:00:00 25. 25.
1994-11-23 00:00:00 30. 30.
1994-11-23 06:00:00 30. 30.
1994-11-23 12:00:00 35. 35.
1994-11-23 18:00:00 35. 20. 1002. 35.
1994-11-24 00:00:00 35. 25. 1000. 35.
1994-11-24 06:00:00 35. 25. 1000. 35.
1994-11-24 12:00:00 35. 28. 997. 35.
1994-11-24 18:00:00 40. 30. 995. 40.
1994-11-25 00:00:00 45. 35. 992. 45.
1994-11-25 06:00:00 50. 40. 988. 50.
1994-11-25 12:00:00 55. 45. 985. 55.
1994-11-25 18:00:00 65. 48. 980. 65.
1994-11-26 00:00:00 75. 55. 975. 75.
1994-11-26 06:00:00 85. 60. 970. 85.
1994-11-26 12:00:00 95. 68. 960. 95.
1994-11-26 18:00:00 100. 68. 960. 100.
1994-11-27 00:00:00 110. 72. 955. 110.
1994-11-27 06:00:00 115. 75. 950. 115.
jtwc_sh reunion neumann
1994-11-27 12:00:00 115. 80. 945. 115.
1994-11-27 18:00:00 115. 80. 945. 115.
1994-11-28 00:00:00 115. 85. 940. 115.
1994-11-28 06:00:00 110. 85. 940. 110.
1994-11-28 12:00:00 110. 90. 930. 110.
1994-11-28 18:00:00 105. 95. 925. 105.
1994-11-29 00:00:00 105. 95. 925. 105.
1994-11-29 06:00:00 100. 90. 930. 100.
1994-11-29 12:00:00 100. 80. 945. 100.
1994-11-29 18:00:00 90. 72. 955. 90.
1994-11-30 00:00:00 80. 65. 965. 80.
1994-11-30 06:00:00 70. 60. 970. 70.
1994-11-30 12:00:00 60. 52. 975. 60.
1994-11-30 18:00:00 50. 45. 985. 50.
1994-12-01 00:00:00 45. 40. 988. 45.
1994-12-01 06:00:00 40. 35. 992. 40.
1994-12-01 12:00:00 35. 35. 992. 35.
1994-12-01 18:00:00 30. 30. 995. 30.
1994-12-02 00:00:00 25. 30. 995. 25.
1994-12-02 06:00:00 25. 30. 995. 25.
1994-12-02 12:00:00 25. 1000.
1994-12-02 18:00:00 25. 1000.
1994-12-03 00:00:00

top of page Links to source data

Source Source file Format
jtwc_sh bsh021995.txt ATCF
reunion WMO-Best-Tracks.txt:Line=16766:albertine WMO (old format)
neumann tracks.sh:Storm=1015:ALBERTINE:BSH021995:JTWC HURDAT